Time;durP1;ratioP1;P1;durP2;ratioP2;P2;SDS_P1;SDS_P2;PMS_P1;PMS_P2;Temp;Humidity;BMP_temperature;BMP_pressure;BME280_temperature;BME280_humidity;BME280_pressure;Samples;Min_cycle;Max_cycle;Signal;HPM_P1;HPM_P2
2023/09/26 00:00:25;;;;;;;;;;;;;;;12.58;100.00;102181.28;5004818;28;19975;-70
2023/09/26 00:02:51;;;;;;;;;;;;;;;12.59;100.00;102179.47;5006074;28;20028;-70
2023/09/26 00:05:20;;;;;;;;;;;;;;;12.54;100.00;102182.47;4997178;28;20399;-70
2023/09/26 00:07:45;;;;;;;;;;;;;;;12.50;100.00;102180.06;5007834;28;20435;-71
2023/09/26 00:10:11;;;;;;;;;;;;;;;12.32;100.00;102185.66;4998591;28;19928;-70
2023/09/26 00:12:36;;;;;;;;;;;;;;;12.22;100.00;102188.09;5002149;28;19928;-70
2023/09/26 00:15:01;;;;;;;;;;;;;;;12.21;100.00;102182.78;5008926;28;20458;-70
2023/09/26 00:17:26;;;;;;;;;;;;;;;12.17;100.00;102171.34;5005591;28;19925;-70
2023/09/26 00:19:52;;;;;;;;;;;;;;;12.18;100.00;102173.09;4998718;28;19917;-70
2023/09/26 00:22:17;;;;;;;;;;;;;;;12.24;100.00;102171.81;5012596;28;19952;-71
2023/09/26 00:24:43;;;;;;;;;;;;;;;12.24;100.00;102171.81;5011001;28;20372;-70
2023/09/26 00:27:08;;;;;;;;;;;;;;;12.22;100.00;102171.03;5010757;28;20360;-70
2023/09/26 00:29:33;;;;;;;;;;;;;;;12.20;100.00;102168.47;5007936;28;20445;-71
2023/09/26 00:31:59;;;;;;;;;;;;;;;12.16;100.00;102169.63;5002858;28;19975;-70
2023/09/26 00:34:24;;;;;;;;;;;;;;;12.17;100.00;102171.34;5009199;28;19918;-70
2023/09/26 00:36:49;;;;;;;;;;;;;;;12.18;100.00;102174.94;5004134;28;20189;-70
2023/09/26 00:39:14;;;;;;;;;;;;;;;12.16;100.00;102166.94;5004356;28;19929;-70
2023/09/26 00:41:39;;;;;;;;;;;;;;;12.15;100.00;102165.19;4993891;28;19961;-70
2023/09/26 00:44:06;;;;;;;;;;;;;;;12.23;100.00;102175.47;4989784;28;19969;-70
2023/09/26 00:46:32;;;;;;;;;;;;;;;12.23;100.00;102173.66;5002794;28;19944;-70
2023/09/26 00:48:57;;;;;;;;;;;;;;;12.23;100.00;102165.59;5003953;28;20368;-70
2023/09/26 00:51:22;;;;;;;;;;;;;;;12.21;100.00;102169.31;5010474;28;19952;-70
2023/09/26 00:53:47;;;;;;;;;;;;;;;12.25;100.00;102165.47;4997840;28;20029;-70
2023/09/26 00:56:12;;;;;;;;;;;;;;;12.25;100.00;102170.84;5008598;28;20411;-71
2023/09/26 00:58:38;;;;;;;;;;;;;;;12.21;100.00;102169.31;4995463;28;19917;-71
2023/09/26 01:01:05;;;;;;;;;;;;;;;12.14;100.00;102180.50;4991568;28;20163;-70
2023/09/26 01:03:30;;;;;;;;;;;;;;;12.13;100.00;102180.56;4996847;28;19922;-70
2023/09/26 01:05:55;;;;;;;;;;;;;;;12.08;100.00;102177.31;5002235;28;19921;-70
2023/09/26 01:08:20;;;;;;;;;;;;;;;12.08;100.00;102167.41;4999044;28;19925;-70
2023/09/26 01:10:46;;;;;;;;;;;;;;;11.96;100.00;102146.59;4981827;28;20388;-71
2023/09/26 01:13:11;;;;;;;;;;;;;;;12.13;100.00;102168.00;4996878;28;19988;-71
2023/09/26 01:15:38;;;;;;;;;;;;;;;12.15;100.00;102158.00;4987603;28;19921;-70
2023/09/26 01:18:13;;;;;;;;;;;;;;;12.13;100.00;102148.28;5002275;28;20323;-70
2023/09/26 01:20:39;;;;;;;;;;;;;;;12.13;100.00;102148.28;4989609;28;19940;-70
2023/09/26 01:23:05;;;;;;;;;;;;;;;12.09;100.00;102152.13;5011168;28;20303;-72
2023/09/26 01:25:31;;;;;;;;;;;;;;;12.05;100.00;102151.47;5010011;28;20016;-70
2023/09/26 01:28:01;;;;;;;;;;;;;;;11.99;100.00;102152.72;5013814;28;19951;-70
2023/09/26 01:30:26;;;;;;;;;;;;;;;11.89;100.00;102145.28;4998166;28;19929;-70
2023/09/26 01:32:52;;;;;;;;;;;;;;;11.87;100.00;102142.69;5000136;28;19921;-70
2023/09/26 01:35:17;;;;;;;;;;;;;;;11.87;100.00;102148.06;5007904;28;20335;-70
2023/09/26 01:37:43;;;;;;;;;;;;;;;11.90;100.00;102147.03;5010723;28;19921;-70
2023/09/26 01:40:09;;;;;;;;;;;;;;;11.96;100.00;102150.19;5000803;28;19965;-70
2023/09/26 01:42:35;;;;;;;;;;;;;;;12.05;100.00;102151.47;4998944;28;19921;-70
2023/09/26 01:45:00;;;;;;;;;;;;;;;12.02;100.00;102153.50;5007844;28;19918;-70
2023/09/26 01:47:30;;;;;;;;;;;;;;;11.98;100.00;102161.72;5009433;28;19931;-70
2023/09/26 01:49:55;;;;;;;;;;;;;;;11.99;100.00;102163.47;4991707;28;20126;-70
2023/09/26 01:52:20;;;;;;;;;;;;;;;12.04;100.00;102165.88;5001605;28;19925;-70
2023/09/26 01:54:46;;;;;;;;;;;;;;;12.06;100.00;102163.06;5008195;28;19921;-70
2023/09/26 01:57:11;;;;;;;;;;;;;;;12.10;100.00;102152.03;5003181;28;20535;-70
2023/09/26 01:59:36;;;;;;;;;;;;;;;12.14;100.00;102156.28;5010078;28;20012;-70
2023/09/26 02:02:04;;;;;;;;;;;;;;;12.19;100.00;102155.09;5004281;28;20016;-70
2023/09/26 02:04:29;;;;;;;;;;;;;;;12.24;100.00;102147.59;5008802;28;19921;-70
2023/09/26 02:06:55;;;;;;;;;;;;;;;12.25;100.00;102135.84;5002957;28;19932;-70
2023/09/26 02:09:20;;;;;;;;;;;;;;;12.18;100.00;102131.84;5017086;28;19925;-70
2023/09/26 02:11:45;;;;;;;;;;;;;;;12.17;100.00;102138.19;5002702;28;20356;-70
2023/09/26 02:14:10;;;;;;;;;;;;;;;12.19;100.00;102128.16;5012592;28;20371;-70
2023/09/26 02:16:36;;;;;;;;;;;;;;;12.21;100.00;102135.19;5001344;28;20284;-70
2023/09/26 02:19:01;;;;;;;;;;;;;;;12.18;100.00;102130.00;4999757;28;20662;-70
2023/09/26 02:21:26;;;;;;;;;;;;;;;12.00;100.00;102118.56;5001658;28;20010;-70
2023/09/26 02:23:51;;;;;;;;;;;;;;;12.08;100.00;102135.13;5008345;28;20024;-70
2023/09/26 02:26:17;;;;;;;;;;;;;;;12.06;100.00;102134.34;5000291;28;19921;-70
2023/09/26 02:28:42;;;;;;;;;;;;;;;12.07;100.00;102140.56;4995415;28;19925;-70
2023/09/26 02:31:13;;;;;;;;;;;;;;;12.02;100.00;102140.88;4999323;28;20016;-71
2023/09/26 02:33:38;;;;;;;;;;;;;;;11.98;100.00;102133.91;4994961;28;19928;-71
2023/09/26 02:36:03;;;;;;;;;;;;;;;11.94;100.00;102132.38;5008090;28;19986;-71
2023/09/26 02:38:29;;;;;;;;;;;;;;;11.88;100.00;102135.50;5011832;28;20019;-70
2023/09/26 02:40:54;;;;;;;;;;;;;;;11.81;100.00;102129.59;4999861;28;19944;-70
2023/09/26 02:43:19;;;;;;;;;;;;;;;11.76;100.00;102129.91;5003074;28;19932;-72
2023/09/26 02:45:44;;;;;;;;;;;;;;;11.74;100.00;102131.81;5011883;28;19917;-70
2023/09/26 02:48:09;;;;;;;;;;;;;;;11.73;100.00;102124.69;4996408;28;19964;-72
2023/09/26 02:50:35;;;;;;;;;;;;;;;11.69;100.00;102125.84;4990899;28;20028;-70
2023/09/26 02:53:00;;;;;;;;;;;;;;;11.61;100.00;102123.63;4997787;28;19916;-70
2023/09/26 02:55:25;;;;;;;;;;;;;;;11.63;100.00;102121.72;5003780;28;19917;-70
2023/09/26 02:57:51;;;;;;;;;;;;;;;11.66;100.00;102120.66;4987229;28;19921;-70
2023/09/26 03:00:16;;;;;;;;;;;;;;;11.64;100.00;102111.84;4996866;28;19944;-70
2023/09/26 03:02:42;;;;;;;;;;;;;;;11.58;100.00;102107.69;4989583;28;19921;-70
2023/09/26 03:05:09;;;;;;;;;;;;;;;11.46;100.00;102101.25;4998611;28;19930;-70
2023/09/26 03:07:34;;;;;;;;;;;;;;;11.33;100.00;102109.19;5004404;28;19921;-70
2023/09/26 03:10:00;;;;;;;;;;;;;;;11.26;100.00;102099.75;5000131;28;19926;-70
2023/09/26 03:12:25;;;;;;;;;;;;;;;11.24;100.00;102107.09;5003693;28;19984;-69
2023/09/26 03:14:51;;;;;;;;;;;;;;;11.24;100.00;102102.56;5009994;28;20275;-69
2023/09/26 03:17:16;;;;;;;;;;;;;;;11.30;100.00;102100.47;4996140;28;19925;-70
2023/09/26 03:19:41;;;;;;;;;;;;;;;11.35;100.00;102095.69;5006423;28;20004;-70
2023/09/26 03:22:07;;;;;;;;;;;;;;;11.39;100.00;102083.75;4993848;28;20159;-70
2023/09/26 03:24:32;;;;;;;;;;;;;;;11.43;100.00;102079.91;5010032;28;19921;-70
2023/09/26 03:26:57;;;;;;;;;;;;;;;11.44;100.00;102086.19;5002931;28;19956;-70
2023/09/26 03:29:23;;;;;;;;;;;;;;;11.48;100.00;102093.09;5002846;28;20015;-70
2023/09/26 03:31:48;;;;;;;;;;;;;;;11.50;100.00;102097.41;5008214;28;19925;-70
2023/09/26 03:34:14;;;;;;;;;;;;;;;11.59;100.00;102090.59;4997416;28;20414;-70
2023/09/26 03:36:39;;;;;;;;;;;;;;;11.63;100.00;102089.44;5006556;28;20236;-70
2023/09/26 03:39:05;;;;;;;;;;;;;;;11.62;100.00;102085.03;5001533;28;19922;-70
2023/09/26 03:41:32;;;;;;;;;;;;;;;11.59;100.00;102082.53;4995429;28;20284;-70
2023/09/26 03:43:57;;;;;;;;;;;;;;;11.58;100.00;102083.47;5007237;28;19921;-70
2023/09/26 03:46:22;;;;;;;;;;;;;;;11.56;100.00;102085.41;5002376;28;19928;-70
2023/09/26 03:48:48;;;;;;;;;;;;;;;11.52;100.00;102094.66;5008942;28;19929;-70
2023/09/26 03:51:13;;;;;;;;;;;;;;;11.51;100.00;102091.06;5011057;28;19959;-70
2023/09/26 03:53:39;;;;;;;;;;;;;;;11.49;100.00;102090.31;5008913;28;20047;-70
2023/09/26 03:56:04;;;;;;;;;;;;;;;11.55;100.00;102098.00;4990589;28;19921;-70
2023/09/26 03:58:30;;;;;;;;;;;;;;;11.61;100.00;102093.19;4998068;28;19999;-70
2023/09/26 04:00:55;;;;;;;;;;;;;;;11.62;100.00;102093.09;5009803;28;20039;-70
2023/09/26 04:03:20;;;;;;;;;;;;;;;11.59;100.00;102087.91;4998919;28;19918;-70
2023/09/26 04:05:48;;;;;;;;;;;;;;;11.57;100.00;102081.75;4998150;28;19960;-70
2023/09/26 04:08:14;;;;;;;;;;;;;;;11.57;100.00;102087.13;4999023;28;19925;-70
2023/09/26 04:10:39;;;;;;;;;;;;;;;11.55;100.00;102080.97;4996555;28;19921;-70
2023/09/26 04:13:04;;;;;;;;;;;;;;;11.48;100.00;102083.19;4997742;28;19921;-70
2023/09/26 04:15:30;;;;;;;;;;;;;;;11.39;100.00;102081.06;5010381;28;19927;-70
2023/09/26 04:17:55;;;;;;;;;;;;;;;11.34;100.00;102088.56;5003392;28;20566;-70
2023/09/26 04:20:21;;;;;;;;;;;;;;;11.32;100.00;102085.09;5001432;28;19913;-70
2023/09/26 04:22:47;;;;;;;;;;;;;;;11.31;100.00;102086.91;5011250;28;19925;-70
2023/09/26 04:25:12;;;;;;;;;;;;;;;11.31;100.00;102080.69;4980518;28;20311;-70
2023/09/26 04:27:37;;;;;;;;;;;;;;;11.29;100.00;102082.59;5007540;28;19925;-70
2023/09/26 04:30:03;;;;;;;;;;;;;;;11.22;100.00;102095.56;5004755;28;20559;-72
2023/09/26 04:32:28;;;;;;;;;;;;;;;11.21;100.00;102091.13;4997824;28;20439;-70
2023/09/26 04:34:54;;;;;;;;;;;;;;;11.17;100.00;102087.75;5009601;28;19972;-70
2023/09/26 04:37:19;;;;;;;;;;;;;;;11.16;100.00;102085.16;5007256;28;19978;-70
2023/09/26 04:39:44;;;;;;;;;;;;;;;11.13;100.00;102082.66;4997485;28;19921;-70
2023/09/26 04:42:09;;;;;;;;;;;;;;;11.10;100.00;102081.88;4993889;28;19953;-70
2023/09/26 04:44:34;;;;;;;;;;;;;;;11.07;100.00;102075.84;5005442;28;20069;-70
2023/09/26 04:47:00;;;;;;;;;;;;;;;11.03;100.00;102072.47;4997681;28;19921;-70
2023/09/26 04:49:25;;;;;;;;;;;;;;;10.93;100.00;102064.09;5009026;28;19925;-70
2023/09/26 04:51:50;;;;;;;;;;;;;;;10.85;100.00;102057.44;5000237;28;20020;-72
2023/09/26 04:54:16;;;;;;;;;;;;;;;10.75;100.00;102057.13;5007431;28;20023;-72
2023/09/26 04:56:41;;;;;;;;;;;;;;;10.77;100.00;102064.13;5013689;28;20399;-69
2023/09/26 04:59:06;;;;;;;;;;;;;;;10.74;100.00;102061.63;5002481;28;19975;-71
2023/09/26 05:01:32;;;;;;;;;;;;;;;10.75;100.00;102063.34;5006187;28;20008;-71
2023/09/26 05:03:57;;;;;;;;;;;;;;;10.75;100.00;102063.34;4997524;28;19921;-71
2023/09/26 05:06:22;;;;;;;;;;;;;;;10.80;100.00;102065.78;4997947;28;19924;-72
2023/09/26 05:08:48;;;;;;;;;;;;;;;10.80;100.00;102058.56;5008256;28;20033;-71
2023/09/26 05:11:14;;;;;;;;;;;;;;;10.88;100.00;102054.56;5003118;28;19956;-71
2023/09/26 05:13:39;;;;;;;;;;;;;;;10.90;100.00;102063.41;4981138;28;19964;-71
2023/09/26 05:16:07;;;;;;;;;;;;;;;10.96;100.00;102060.38;5011063;28;19921;-71
2023/09/26 05:18:32;;;;;;;;;;;;;;;11.02;100.00;102062.66;4996853;28;19921;-71
2023/09/26 05:20:58;;;;;;;;;;;;;;;11.04;100.00;102062.59;5006134;28;19924;-71
2023/09/26 05:23:23;;;;;;;;;;;;;;;11.05;100.00;102058.94;4998055;28;19921;-71
2023/09/26 05:25:48;;;;;;;;;;;;;;;11.07;100.00;102054.34;4997568;28;19932;-71
2023/09/26 05:28:14;;;;;;;;;;;;;;;11.09;100.00;102055.97;5008936;28;19940;-71
2023/09/26 05:30:41;;;;;;;;;;;;;;;11.08;100.00;102054.25;5002093;28;19925;-71
2023/09/26 05:33:06;;;;;;;;;;;;;;;11.08;100.00;102056.94;4988434;28;20354;-71
2023/09/26 05:35:31;;;;;;;;;;;;;;;11.09;100.00;102058.66;4994358;28;19921;-72
2023/09/26 05:37:56;;;;;;;;;;;;;;;11.09;100.00;102069.41;5006300;28;20517;-71
2023/09/26 05:40:22;;;;;;;;;;;;;;;11.09;100.00;102074.78;5003274;28;20044;-72
2023/09/26 05:42:47;;;;;;;;;;;;;;;11.04;100.00;102067.97;4995433;28;19963;-72
2023/09/26 05:45:12;;;;;;;;;;;;;;;11.06;100.00;102069.59;5012886;28;20306;-72
2023/09/26 05:47:37;;;;;;;;;;;;;;;11.02;100.00;102059.97;4988045;28;20320;-71
2023/09/26 05:50:06;;;;;;;;;;;;;;;11.03;100.00;102066.22;5007897;28;19960;-71
2023/09/26 05:52:31;;;;;;;;;;;;;;;11.04;100.00;102063.44;4996503;28;19925;-71
2023/09/26 05:54:57;;;;;;;;;;;;;;;11.08;100.00;102062.31;5012569;28;19928;-71
2023/09/26 05:57:22;;;;;;;;;;;;;;;11.12;100.00;102059.44;5005375;28;20012;-71
2023/09/26 05:59:47;;;;;;;;;;;;;;;11.14;100.00;102061.06;4996616;28;19925;-71
2023/09/26 06:02:15;;;;;;;;;;;;;;;11.20;100.00;102059.84;5001326;28;19928;-71
2023/09/26 06:04:41;;;;;;;;;;;;;;;11.23;100.00;102056.97;5012145;28;19964;-70
2023/09/26 06:07:07;;;;;;;;;;;;;;;11.22;100.00;102066.84;5008017;28;20455;-71
2023/09/26 06:09:32;;;;;;;;;;;;;;;11.23;100.00;102068.56;4995931;28;19956;-70
2023/09/26 06:11:57;;;;;;;;;;;;;;;11.28;100.00;102079.03;5003737;28;19921;-71
2023/09/26 06:14:22;;;;;;;;;;;;;;;11.31;100.00;102080.69;5012825;28;19921;-70
2023/09/26 06:16:48;;;;;;;;;;;;;;;11.40;100.00;102077.41;4996283;28;19932;-71
2023/09/26 06:19:13;;;;;;;;;;;;;;;11.44;100.00;102083.47;5005583;28;19932;-71
2023/09/26 06:21:38;;;;;;;;;;;;;;;11.48;100.00;102082.34;5009471;28;20377;-71
2023/09/26 06:24:06;;;;;;;;;;;;;;;11.53;100.00;102075.72;5013706;28;20422;-71
2023/09/26 06:26:31;;;;;;;;;;;;;;;11.56;100.00;102080.03;5005348;28;20019;-71
2023/09/26 06:28:56;;;;;;;;;;;;;;;11.62;100.00;102070.72;5011298;28;20015;-70
2023/09/26 06:31:22;;;;;;;;;;;;;;;11.65;100.00;102067.84;5017525;28;19928;-71
2023/09/26 06:33:47;;;;;;;;;;;;;;;11.66;100.00;102061.47;5012466;28;19966;-71
2023/09/26 06:36:13;;;;;;;;;;;;;;;11.72;100.00;102071.00;4989632;28;20081;-71
2023/09/26 06:38:38;;;;;;;;;;;;;;;11.79;100.00;102069.63;4985888;28;19963;-71
2023/09/26 06:41:04;;;;;;;;;;;;;;;11.83;100.00;102065.78;5000624;28;20392;-71
2023/09/26 06:43:30;;;;;;;;;;;;;;;11.88;100.00;102065.50;5004733;28;19964;-70
2023/09/26 06:45:55;;;;;;;;;;;;;;;11.96;100.00;102065.88;4999973;28;20025;-70
2023/09/26 06:48:20;;;;;;;;;;;;;;;12.02;100.00;102070.03;5008997;28;19964;-71
2023/09/26 06:50:45;;;;;;;;;;;;;;;12.10;100.00;102059.63;5009413;28;20004;-70
2023/09/26 06:53:11;;;;;;;;;;;;;;;12.15;100.00;102058.38;4976804;28;19921;-71
2023/09/26 06:55:39;;;;;;;;;;;;;;;12.23;100.00;102057.00;5009035;28;20168;-70
2023/09/26 06:58:04;;;;;;;;;;;;;;;12.29;100.00;102059.28;5004071;28;19953;-70
2023/09/26 07:00:29;;;;;;;;;;;;;;;12.28;100.00;102068.34;5006300;28;20072;-70
2023/09/26 07:02:55;;;;;;;;;;;;;;;12.32;100.00;102063.59;5003131;28;20003;-70
2023/09/26 07:05:20;;;;;;;;;;;;;;;12.35;100.00;102058.91;4999728;28;19937;-70
2023/09/26 07:07:45;;;;;;;;;;;;;;;12.50;100.00;102061.53;5011515;28;19956;-71
2023/09/26 07:10:10;;;;;;;;;;;;;;;12.47;100.00;102064.41;4998948;28;19932;-70
2023/09/26 07:12:37;;;;;;;;;;;;;;;12.49;100.00;102066.06;5008725;28;20355;-71
2023/09/26 07:15:02;;;;;;;;;;;;;;;12.44;100.00;102043.94;5011323;28;19943;-70
2023/09/26 07:17:27;;;;;;;;;;;;;;;12.64;100.00;102068.69;5006824;28;19925;-72
2023/09/26 07:19:53;;;;;;;;;;;;;;;12.67;100.00;102072.06;5001568;28;20366;-71
2023/09/26 07:22:18;;;;;;;;;;;;;;;12.71;100.00;102068.16;5016148;28;20379;-70
2023/09/26 07:24:47;;;;;;;;;;;;;;;12.82;100.00;102072.84;5006727;28;19921;-71
2023/09/26 07:27:12;;;;;;;;;;;;;;;12.87;100.00;102073.38;5013406;28;19920;-72
2023/09/26 07:29:37;;;;;;;;;;;;;;;13.04;100.00;102076.78;5008637;28;19928;-71
2023/09/26 07:32:03;;;;;;;;;;;;;;;13.22;100.00;102068.38;5013212;28;19964;-71
2023/09/26 07:34:30;;;;;;;;;;;;;;;13.34;100.00;102062.97;5012488;28;20413;-71
2023/09/26 07:36:55;;;;;;;;;;;;;;;13.54;100.00;102063.44;5016540;28;19932;-71
2023/09/26 07:39:21;;;;;;;;;;;;;;;13.65;100.00;102063.53;4999919;28;20669;-72
2023/09/26 07:41:47;;;;;;;;;;;;;;;13.76;100.00;102057.38;4980662;28;19921;-70
2023/09/26 07:44:12;;;;;;;;;;;;;;;13.89;100.00;102062.75;4999151;28;19917;-71
2023/09/26 07:46:37;;;;;;;;;;;;;;;14.10;100.00;102060.31;5010108;28;19963;-71
2023/09/26 07:49:02;;;;;;;;;;;;;;;14.16;100.00;102064.41;5010665;28;19925;-71
2023/09/26 07:51:28;;;;;;;;;;;;;;;14.23;100.00;102057.56;5005982;28;19963;-70
2023/09/26 07:53:53;;;;;;;;;;;;;;;14.21;100.00;102055.94;5000109;28;20011;-70
2023/09/26 07:56:18;;;;;;;;;;;;;;;14.34;100.00;102055.91;5005392;28;19924;-71
2023/09/26 07:58:43;;;;;;;;;;;;;;;14.39;100.00;102051.91;5003425;28;20672;-71
2023/09/26 08:01:09;;;;;;;;;;;;;;;14.50;100.00;102052.91;4986644;28;20360;-71
2023/09/26 08:03:35;;;;;;;;;;;;;;;14.67;100.00;102057.91;4982607;28;19925;-71
2023/09/26 08:06:00;;;;;;;;;;;;;;;14.83;100.00;102059.47;4991340;28;20213;-72
2023/09/26 08:08:25;;;;;;;;;;;;;;;15.02;100.00;102055.34;4999190;28;19932;-72
2023/09/26 08:10:51;;;;;;;;;;;;;;;15.13;100.00;102053.50;5000521;28;19975;-70
2023/09/26 08:13:16;;;;;;;;;;;;;;;15.27;100.00;102052.44;4997069;28;19933;-70
2023/09/26 08:15:41;;;;;;;;;;;;;;;15.40;100.00;102054.19;5012376;28;19928;-69
2023/09/26 08:18:07;;;;;;;;;;;;;;;15.54;100.00;102051.22;5011865;28;20178;-70
2023/09/26 08:20:32;;;;;;;;;;;;;;;15.74;100.00;102048.78;4971687;28;19966;-70
2023/09/26 08:22:57;;;;;;;;;;;;;;;15.89;100.00;102041.31;5010498;28;20402;-71
2023/09/26 08:25:22;;;;;;;;;;;;;;;16.02;100.00;102042.00;5012814;28;19928;-70
2023/09/26 08:27:48;;;;;;;;;;;;;;;16.14;100.00;102039.28;5003440;28;19975;-70
2023/09/26 08:30:13;;;;;;;;;;;;;;;16.25;100.00;102039.22;4997201;28;19925;-70
2023/09/26 08:32:39;;;;;;;;;;;;;;;16.24;100.00;102036.66;4998999;28;19965;-69
2023/09/26 08:35:08;;;;;;;;;;;;;;;16.13;100.00;102032.13;5002316;28;19921;-69
2023/09/26 08:37:34;;;;;;;;;;;;;;;16.18;100.00;102027.16;4999388;28;19921;-69
2023/09/26 08:39:59;;;;;;;;;;;;;;;16.25;100.00;102025.69;4985526;28;19927;-70
2023/09/26 08:42:27;;;;;;;;;;;;;;;16.31;100.00;102019.75;4996682;28;19918;-70
2023/09/26 08:44:53;;;;;;;;;;;;;;;16.37;100.00;102018.38;4997526;28;20398;-69
2023/09/26 08:47:20;;;;;;;;;;;;;;;16.63;100.00;102010.75;4999638;28;20012;-70
2023/09/26 08:49:45;;;;;;;;;;;;;;;16.84;100.00;102000.88;5014936;28;19921;-70
2023/09/26 08:52:11;;;;;;;;;;;;;;;17.13;100.00;101987.56;4986591;28;20339;-70
2023/09/26 08:54:36;;;;;;;;;;;;;;;17.16;100.00;101991.84;5010330;28;19925;-69
2023/09/26 08:57:01;;;;;;;;;;;;;;;17.09;100.00;101992.38;5011708;28;19928;-69
2023/09/26 08:59:26;;;;;;;;;;;;;;;17.11;100.00;101997.69;5005073;28;19932;-70
2023/09/26 09:01:51;;;;;;;;;;;;;;;17.38;100.00;102005.22;5002860;28;19928;-71
2023/09/26 09:04:21;;;;;;;;;;;;;;;17.61;100.00;102005.03;5005108;28;20010;-70
2023/09/26 09:06:46;;;;;;;;;;;;;;;17.59;100.00;102004.34;5005641;28;20353;-70
2023/09/26 09:09:13;;;;;;;;;;;;;;;17.70;100.00;102006.09;5009335;28;19925;-70
2023/09/26 09:11:38;;;;;;;;;;;;;;;18.01;100.00;102007.91;5004576;28;20383;-71
2023/09/26 09:14:04;;;;;;;;;;;;;;;18.20;100.00;102001.63;5008765;28;19921;-71
2023/09/26 09:16:29;;;;;;;;;;;;;;;18.40;100.00;102007.94;4998804;28;20334;-70
2023/09/26 09:18:58;;;;;;;;;;;;;;;18.50;100.00;101997.91;4997598;28;20455;-70
2023/09/26 09:21:29;;;;;;;;;;;;;;;18.50;100.00;102002.50;4992543;28;20675;-70
2023/09/26 09:23:55;;;;;;;;;;;;;;;18.52;100.00;101997.78;4976434;28;20017;-70
2023/09/26 09:26:21;;;;;;;;;;;;;;;18.46;100.00;101991.03;4998489;28;19991;-70
2023/09/26 09:28:47;;;;;;;;;;;;;;;18.62;100.00;101990.47;4990787;28;19932;-69
2023/09/26 09:31:13;;;;;;;;;;;;;;;18.64;100.00;101990.34;4996254;28;19917;-71
2023/09/26 09:33:39;;;;;;;;;;;;;;;18.68;100.00;102002.63;4986861;28;19921;-71
2023/09/26 09:36:05;;;;;;;;;;;;;;;18.74;100.00;102002.03;4998867;28;19927;-70
2023/09/26 09:38:33;;;;;;;;;;;;;;;18.85;100.00;102001.00;5004844;28;19947;-71
2023/09/26 09:40:59;;;;;;;;;;;;;;;18.87;100.00;101999.88;4999615;28;19952;-71
2023/09/26 09:43:25;;;;;;;;;;;;;;;18.99;100.00;102005.19;4995678;28;20015;-70
2023/09/26 09:45:50;;;;;;;;;;;;;;;19.38;100.00;101999.63;4990039;28;19924;-69
2023/09/26 09:48:15;;;;;;;;;;;;;;;19.52;100.00;101992.81;4989047;28;20323;-70
2023/09/26 09:50:40;;;;;;;;;;;;;;;19.53;100.00;101986.38;4999570;28;19918;-72
2023/09/26 09:53:06;;;;;;;;;;;;;;;19.75;100.00;101982.34;4978193;28;19982;-70
2023/09/26 09:55:37;;;;;;;;;;;;;;;19.77;100.00;101984.94;5011336;28;20162;-71
2023/09/26 09:58:02;;;;;;;;;;;;;;;19.75;100.00;101979.63;5008783;28;20295;-70
2023/09/26 10:00:28;;;;;;;;;;;;;;;19.82;100.00;101974.47;4998690;28;19940;-69
2023/09/26 10:02:54;;;;;;;;;;;;;;;19.91;100.00;101972.69;5005043;28;19921;-69
2023/09/26 10:05:19;;;;;;;;;;;;;;;20.26;100.00;101972.88;4999591;28;19961;-69
2023/09/26 10:07:45;;;;;;;;;;;;;;;20.29;100.00;101964.38;5006497;28;19972;-70
2023/09/26 10:10:11;;;;;;;;;;;;;;;20.17;100.00;101964.59;5003896;28;19932;-72
2023/09/26 10:12:40;;;;;;;;;;;;;;;20.50;100.00;101967.63;5006882;28;19964;-68
2023/09/26 10:15:13;;;;;;;;;;;;;;;20.71;100.00;101969.16;4985555;28;19948;-69
2023/09/26 10:17:43;;;;;;;;;;;;;;;20.45;100.00;101964.50;5010186;28;20299;-70
2023/09/26 10:20:11;;;;;;;;;;;;;;;20.48;100.00;101966.09;4998312;28;19921;-70
2023/09/26 10:22:37;;;;;;;;;;;;;;;20.48;100.00;101969.66;5001944;28;19998;-70
2023/09/26 10:25:04;;;;;;;;;;;;;;;20.31;100.00;101960.47;4993565;28;19956;-70
2023/09/26 10:27:33;;;;;;;;;;;;;;;20.43;100.00;101960.25;5000055;28;19944;-70
2023/09/26 10:29:58;;;;;;;;;;;;;;;20.32;100.00;101964.06;5001866;28;19992;-70
2023/09/26 10:32:33;;;;;;;;;;;;;;;20.29;100.00;101964.38;4998776;28;20384;-70
2023/09/26 10:34:59;;;;;;;;;;;;;;;20.26;100.00;101976.44;5002087;28;19928;-71
2023/09/26 10:37:27;;;;;;;;;;;;;;;20.29;100.00;101978.00;5014951;28;19917;-70
2023/09/26 10:39:52;;;;;;;;;;;;;;;20.31;100.00;101981.44;4999907;28;19928;-70
2023/09/26 10:42:20;;;;;;;;;;;;;;;20.51;100.00;101973.97;5001619;28;20276;-70
2023/09/26 10:44:45;;;;;;;;;;;;;;;20.53;100.00;101959.13;4999811;28;19944;-70
2023/09/26 10:47:14;;;;;;;;;;;;;;;20.57;100.00;101956.94;4998605;28;19921;-70
2023/09/26 10:49:39;;;;;;;;;;;;;;;20.58;100.00;101955.09;5002601;28;19952;-69
2023/09/26 10:52:07;;;;;;;;;;;;;;;20.49;100.00;101955.00;4998576;28;20320;-69
2023/09/26 10:54:34;;;;;;;;;;;;;;;20.70;100.00;101950.22;5003252;28;19971;-70
2023/09/26 10:56:59;;;;;;;;;;;;;;;20.81;100.00;101949.97;5001457;28;19941;-69
2023/09/26 10:59:28;;;;;;;;;;;;;;;20.97;100.00;101939.16;4995562;28;19921;-70
2023/09/26 11:01:54;;;;;;;;;;;;;;;20.96;100.00;101948.38;5004414;28;20383;-70
2023/09/26 11:04:19;;;;;;;;;;;;;;;20.93;100.00;101953.28;4982367;28;19925;-70
2023/09/26 11:06:44;;;;;;;;;;;;;;;20.91;100.00;101964.38;4984148;28;20403;-70
2023/09/26 11:09:11;;;;;;;;;;;;;;;20.71;100.00;101966.41;4997113;28;20307;-71
2023/09/26 11:11:36;;;;;;;;;;;;;;;20.86;100.00;101964.00;4999644;28;19917;-71
2023/09/26 11:14:02;;;;;;;;;;;;;;;20.89;100.00;101963.69;5001208;28;20245;-70
2023/09/26 11:16:27;;;;;;;;;;;;;;;21.28;100.00;101959.63;5002269;28;19921;-71
2023/09/26 11:18:53;;;;;;;;;;;;;;;21.60;100.00;101949.84;4991101;28;19921;-70
2023/09/26 11:21:18;;;;;;;;;;;;;;;21.93;96.58;101941.78;5005275;28;19925;-70
2023/09/26 11:23:45;;;;;;;;;;;;;;;22.01;100.00;101936.31;5003882;28;20310;-70
2023/09/26 11:26:10;;;;;;;;;;;;;;;22.28;100.00;101938.91;5004509;28;20386;-70
2023/09/26 11:28:35;;;;;;;;;;;;;;;21.98;100.00;101938.53;4980909;28;19926;-70
2023/09/26 11:31:00;;;;;;;;;;;;;;;22.02;94.22;101946.22;5001282;28;19922;-70
2023/09/26 11:33:26;;;;;;;;;;;;;;;21.43;100.00;101938.88;4981610;28;19917;-72
2023/09/26 11:35:51;;;;;;;;;;;;;;;21.30;94.54;101946.66;5008007;28;19924;-70
2023/09/26 11:38:16;;;;;;;;;;;;;;;21.39;100.00;101934.75;4980468;28;19941;-71
2023/09/26 11:40:41;;;;;;;;;;;;;;;21.40;100.00;101932.88;4999482;28;19921;-70
2023/09/26 11:43:07;;;;;;;;;;;;;;;21.40;100.00;101932.88;4994582;28;19978;-70
2023/09/26 11:45:32;;;;;;;;;;;;;;;21.41;97.96;101926.41;4998970;28;19914;-70
2023/09/26 11:47:57;;;;;;;;;;;;;;;21.50;100.00;101921.81;5003108;28;19929;-70
2023/09/26 11:50:23;;;;;;;;;;;;;;;21.60;100.00;101930.72;4998652;28;20008;-69
2023/09/26 11:52:48;;;;;;;;;;;;;;;21.54;100.00;101928.66;4963565;28;19932;-70
2023/09/26 11:55:17;;;;;;;;;;;;;;;21.37;100.00;101953.19;4999715;28;20388;-70
2023/09/26 11:57:42;;;;;;;;;;;;;;;21.69;100.00;101926.16;4999390;28;19928;-70
2023/09/26 12:00:11;;;;;;;;;;;;;;;21.86;100.00;101918.88;4997661;28;19926;-70
2023/09/26 12:02:38;;;;;;;;;;;;;;;22.07;98.47;101920.25;5004123;28;19987;-70
2023/09/26 12:05:06;;;;;;;;;;;;;;;21.83;96.27;101925.53;5003285;28;19920;-71
2023/09/26 12:07:31;;;;;;;;;;;;;;;21.59;92.72;101918.09;4998275;28;20371;-72
2023/09/26 12:09:57;;;;;;;;;;;;;;;21.58;94.91;101922.69;5001886;28;19930;-71
2023/09/26 12:12:22;;;;;;;;;;;;;;;21.52;90.19;101915.19;4981629;28;20095;-70
2023/09/26 12:14:48;;;;;;;;;;;;;;;21.81;96.69;101913.03;5000508;28;19921;-70
2023/09/26 12:17:13;;;;;;;;;;;;;;;21.73;91.65;101914.72;4998846;28;19996;-72
2023/09/26 12:19:39;;;;;;;;;;;;;;;21.90;96.23;101913.91;4998981;28;19921;-72